createdAt,value
2022-07-29T00:00:21.917Z,6.60
2022-07-29T00:02:51.448Z,6.73
2022-07-29T00:05:19.821Z,6.63
2022-07-29T00:07:47.937Z,6.80
2022-07-29T00:10:16.007Z,5.77
2022-07-29T00:12:44.080Z,6.07
2022-07-29T00:15:12.471Z,5.23
2022-07-29T00:17:40.533Z,8.30
2022-07-29T00:20:11.621Z,6.80
2022-07-29T00:22:39.953Z,9.53
2022-07-29T00:25:08.640Z,11.10
2022-07-29T00:27:36.697Z,8.00
2022-07-29T00:30:05.257Z,7.43
2022-07-29T00:32:33.296Z,8.30
2022-07-29T00:35:18.615Z,6.70
2022-07-29T00:37:48.038Z,7.30
2022-07-29T00:40:16.116Z,6.80
2022-07-29T00:42:45.169Z,7.37
2022-07-29T00:45:13.215Z,7.90
2022-07-29T00:47:41.317Z,6.87
2022-07-29T00:50:11.407Z,6.73
2022-07-29T00:52:40.167Z,6.60
2022-07-29T00:55:11.075Z,7.03
2022-07-29T00:57:39.208Z,7.00
2022-07-29T01:00:08.685Z,6.13
2022-07-29T01:02:36.750Z,6.50
2022-07-29T01:05:04.907Z,6.60
2022-07-29T01:07:33.210Z,7.43
2022-07-29T01:10:01.246Z,5.90
2022-07-29T01:12:32.836Z,6.90
2022-07-29T01:15:00.906Z,7.80
2022-07-29T01:17:30.130Z,8.73
2022-07-29T01:20:00.732Z,8.50
2022-07-29T01:22:31.841Z,7.50
2022-07-29T01:25:20.731Z,6.70
2022-07-29T01:28:02.415Z,7.20
2022-07-29T01:30:31.801Z,9.00
2022-07-29T01:33:02.292Z,7.47
2022-07-29T01:35:33.205Z,6.90
2022-07-29T01:38:05.341Z,5.80
2022-07-29T01:40:37.237Z,5.93
2022-07-29T01:43:08.278Z,5.80
2022-07-29T01:45:40.887Z,5.27
2022-07-29T01:48:12.609Z,4.27
2022-07-29T01:50:42.657Z,4.80
2022-07-29T01:53:11.638Z,5.03
2022-07-29T01:55:42.154Z,4.37
2022-07-29T01:58:10.169Z,3.73
2022-07-29T02:00:39.621Z,5.57
2022-07-29T02:03:12.987Z,5.30
2022-07-29T02:05:42.594Z,4.60
2022-07-29T02:08:10.643Z,4.73
2022-07-29T02:10:38.677Z,5.93
2022-07-29T02:13:06.641Z,5.20
2022-07-29T02:15:34.582Z,4.43
2022-07-29T02:18:04.281Z,4.37
2022-07-29T02:20:32.025Z,4.93
2022-07-29T02:22:59.758Z,4.60
2022-07-29T03:20:41.927Z,5.10
2022-07-29T03:57:54.738Z,6.30
2022-07-29T04:00:22.470Z,6.70
2022-07-29T04:02:50.362Z,7.60
2022-07-29T04:05:18.548Z,7.33
2022-07-29T04:07:46.464Z,7.00
2022-07-29T04:10:14.193Z,7.20
2022-07-29T04:12:43.657Z,5.30
2022-07-29T04:15:11.922Z,5.37
2022-07-29T04:20:08.162Z,4.50
2022-07-29T04:25:04.625Z,4.20
2022-07-29T04:27:32.433Z,5.70
2022-07-29T04:30:01.775Z,6.20
2022-07-29T04:32:29.516Z,6.57
2022-07-29T04:34:57.217Z,4.40
2022-07-29T04:37:24.952Z,4.67
2022-07-29T04:39:52.661Z,3.77
2022-07-29T04:42:27.405Z,4.30
2022-07-29T04:44:55.590Z,5.13
2022-07-29T04:47:25.222Z,4.40
2022-07-29T04:49:52.940Z,5.23
2022-07-29T04:52:20.662Z,4.20
2022-07-29T04:54:48.411Z,4.00
2022-07-29T04:57:16.106Z,4.97
2022-07-29T04:59:44.720Z,4.90
2022-07-29T05:02:12.539Z,7.07
2022-07-29T05:04:41.740Z,6.07
2022-07-29T05:07:09.524Z,4.93
2022-07-29T05:09:37.226Z,5.70
2022-07-29T05:12:05.115Z,4.70
2022-07-29T05:14:32.817Z,4.40
2022-07-29T05:17:00.520Z,4.50
2022-07-29T05:19:28.265Z,3.70
2022-07-29T05:21:57.368Z,4.60
2022-07-29T05:24:25.052Z,3.87
2022-07-29T05:26:52.855Z,3.23
2022-07-29T05:29:44.518Z,3.40
2022-07-29T05:32:08.471Z,3.10
2022-07-29T05:34:36.184Z,3.63
2022-07-29T05:37:05.270Z,2.80
2022-07-29T05:39:48.263Z,3.93
2022-07-29T05:42:17.069Z,4.03
2022-07-29T05:44:44.759Z,3.93
2022-07-29T05:47:12.581Z,3.20
2022-07-29T05:49:40.311Z,3.30
2022-07-29T05:52:09.957Z,3.33
2022-07-29T05:54:37.767Z,3.08
2022-07-29T05:57:05.703Z,2.40
2022-07-29T05:59:33.445Z,2.40
2022-07-29T06:02:01.219Z,3.38
2022-07-29T06:04:29.044Z,3.20
2022-07-29T06:06:56.804Z,3.17
2022-07-29T06:09:26.972Z,2.88
2022-07-29T06:11:54.689Z,2.60
2022-07-29T06:14:22.411Z,3.22
2022-07-29T06:16:50.251Z,2.53
2022-07-29T06:19:18.011Z,3.15
2022-07-29T06:21:45.725Z,2.83
2022-07-29T06:24:13.913Z,3.50
2022-07-29T06:26:43.224Z,3.25
2022-07-29T06:29:11.665Z,2.22
2022-07-29T06:31:39.526Z,2.80
2022-07-29T06:34:07.247Z,2.70
2022-07-29T06:36:36.463Z,2.47
2022-07-29T06:39:06.258Z,2.60
2022-07-29T06:41:34.200Z,1.63
2022-07-29T06:44:03.301Z,3.30
2022-07-29T06:46:31.055Z,2.78
2022-07-29T06:48:58.846Z,2.38
2022-07-29T06:51:26.647Z,2.42
2022-07-29T06:53:59.344Z,2.00
2022-07-29T06:56:31.058Z,2.65
2022-07-29T06:58:58.782Z,2.70
2022-07-29T07:01:28.007Z,1.98
2022-07-29T07:03:55.767Z,2.50
2022-07-29T07:06:23.475Z,2.38
2022-07-29T07:08:51.238Z,2.85
2022-07-29T07:11:18.959Z,2.50
2022-07-29T07:13:46.671Z,2.75
2022-07-29T07:16:14.476Z,2.35
2022-07-29T07:18:43.665Z,2.75
2022-07-29T07:21:11.402Z,2.45
2022-07-29T07:23:46.626Z,2.25
2022-07-29T07:26:14.380Z,2.55
2022-07-29T07:28:42.103Z,2.47
2022-07-29T07:31:10.478Z,2.13
2022-07-29T07:33:38.429Z,2.60
2022-07-29T07:36:07.554Z,2.07
2022-07-29T07:38:35.296Z,2.40
2022-07-29T07:41:03.071Z,2.88
2022-07-29T07:43:30.798Z,2.37
2022-07-29T07:45:58.569Z,2.27
2022-07-29T07:48:26.296Z,2.15
2022-07-29T07:50:54.034Z,2.37
2022-07-29T07:53:24.008Z,1.40
2022-07-29T07:58:39.602Z,2.60
2022-07-29T08:01:07.484Z,2.05
2022-07-29T08:03:35.257Z,1.80
2022-07-29T08:06:02.961Z,2.05
2022-07-29T08:08:32.085Z,1.95
2022-07-29T08:11:02.219Z,1.70
2022-07-29T08:13:33.216Z,1.38
2022-07-29T08:16:01.633Z,1.73
2022-07-29T08:18:29.678Z,1.63
2022-07-29T08:20:57.405Z,1.77
2022-07-29T08:23:25.410Z,2.03
2022-07-29T08:25:54.938Z,1.88
2022-07-29T08:28:26.080Z,2.00
2022-07-29T08:30:53.878Z,1.88
2022-07-29T08:33:21.699Z,1.88
2022-07-29T08:35:50.973Z,2.00
2022-07-29T08:38:18.663Z,1.48
2022-07-29T08:40:46.439Z,1.40
2022-07-29T08:43:15.520Z,1.48
2022-07-29T08:45:47.334Z,2.00
2022-07-29T08:48:16.291Z,1.63
2022-07-29T08:50:46.327Z,1.70
2022-07-29T08:53:14.591Z,1.27
2022-07-29T08:55:43.108Z,1.27
2022-07-29T08:58:10.843Z,1.70
2022-07-29T09:00:42.574Z,1.50
2022-07-29T09:03:13.200Z,1.40
2022-07-29T09:05:44.886Z,1.60
2022-07-29T09:08:15.377Z,0.93
2022-07-29T09:10:43.079Z,1.55
2022-07-29T09:13:10.779Z,1.40
2022-07-29T09:15:38.491Z,1.70
2022-07-29T09:18:07.575Z,1.85
2022-07-29T09:21:07.752Z,1.70
2022-07-29T09:23:35.476Z,1.45
2022-07-29T09:26:04.587Z,1.55
2022-07-29T09:28:32.339Z,1.63
2022-07-29T09:31:00.231Z,1.38
2022-07-29T09:33:35.470Z,1.48
2022-07-29T09:36:04.737Z,1.73
2022-07-29T09:38:33.663Z,1.33
2022-07-29T09:41:05.985Z,1.88
2022-07-29T09:43:34.410Z,1.27
2022-07-29T09:46:12.301Z,1.52
2022-07-29T09:48:41.709Z,1.52
2022-07-29T09:51:21.261Z,1.48
2022-07-29T09:53:49.244Z,1.17
2022-07-29T09:56:16.959Z,2.10
2022-07-29T09:58:44.683Z,1.45
2022-07-29T10:01:12.480Z,1.63
2022-07-29T10:03:53.996Z,1.60
2022-07-29T10:06:21.730Z,1.48
2022-07-29T10:08:50.644Z,1.50
2022-07-29T10:11:18.617Z,1.65
2022-07-29T10:13:46.699Z,1.58
2022-07-29T10:16:14.707Z,1.80
2022-07-29T10:18:42.459Z,1.42
2022-07-29T10:21:22.629Z,1.40
2022-07-29T10:24:00.911Z,1.40
2022-07-29T10:26:29.328Z,1.30
2022-07-29T10:28:57.623Z,1.15
2022-07-29T10:31:27.387Z,1.73
2022-07-29T10:33:57.568Z,1.50
2022-07-29T10:36:29.696Z,1.35
2022-07-29T10:38:58.013Z,1.50
2022-07-29T10:41:36.294Z,1.20
2022-07-29T10:44:17.131Z,1.08
2022-07-29T10:46:47.045Z,1.17
2022-07-29T10:49:16.395Z,1.33
2022-07-29T10:51:55.835Z,0.90
2022-07-29T10:54:42.554Z,1.10
2022-07-29T10:57:15.261Z,1.25
2022-07-29T10:59:43.296Z,1.05
2022-07-29T11:02:41.481Z,1.20
2022-07-29T11:05:12.860Z,1.00
2022-07-29T11:08:02.331Z,1.60
2022-07-29T11:10:31.280Z,0.80
2022-07-29T11:12:59.628Z,0.80
2022-07-29T11:15:28.603Z,1.05
2022-07-29T11:18:05.989Z,1.00
2022-07-29T11:20:34.269Z,1.40
2022-07-29T11:23:05.716Z,1.30
2022-07-29T11:25:50.729Z,1.30
2022-07-29T11:28:23.172Z,1.25
2022-07-29T11:30:52.983Z,1.17
2022-07-29T11:33:54.153Z,1.10
2022-07-29T11:36:18.690Z,1.30
2022-07-29T11:38:57.513Z,1.00
2022-07-29T11:44:13.345Z,0.82
2022-07-29T11:46:46.437Z,1.20
2022-07-29T11:49:15.311Z,0.75
2022-07-29T11:51:48.223Z,1.50
2022-07-29T12:07:03.988Z,0.75
